CFC8 weather

Flamboro Centre Airport
Flamborough, Ontario, Canada

Public forecast

Using degrees Celsius for public forecast. Weather courtesy of forecast.io.

METAR (pilot weather report)

Closest report is John C. Munro Hamilton International Airport, 11.9 nm (22.0 km) S. Retrieved 2019/03/22 07:00 UTC (44 minutes ago):

CYHM 220700Z 26007KT 15SM OVC034 02/01 A2971 RMK SC8 SLP070

TAF (pilot weather forecast)

Closest forecast is John C. Munro Hamilton International Airport, 11.9 nm (22.0 km) S. Retrieved 2019/03/22 06:42 UTC (1 hour ago):

TAF CYHM 220540Z 2206/2306 26008KT P6SM SCT012 OVC025 TEMPO 2206/2210 BKN012 OVC025 PROB30 2206/2210 3SM BR BKN008 OVC025 FM221000 27008KT P6SM BKN030 BKN070 TEMPO 2210/2214 5SM -SHSN BKN012 OVC030 PROB30 2210/2214 2SM BR BKN006 OVC012 FM221400 32012G22KT P6SM BKN030 TEMPO 2214/2217 P6SM -SHSN BKN020 BECMG 2214/2216 32018G28KT FM230000 33018G32KT 6SM -SHSN BKN030 OVC070 FM230300 33015G30KT P6SM FEW030 SCT080 RMK NXT FCST BY 221200Z